Time;durP1;ratioP1;P1;durP2;ratioP2;P2;SDS_P1;SDS_P2;PMS_P1;PMS_P2;Temp;Humidity;BMP_temperature;BMP_pressure;BME280_temperature;BME280_humidity;BME280_pressure;Samples;Min_cycle;Max_cycle;Signal;HPM_P1;HPM_P2
2022/05/22 00:00:52;;;;;;;11.60;5.30;;;;;;;12.64;95.85;101752.91;5274480;28;20371;-64
2022/05/22 00:03:23;;;;;;;13.70;6.15;;;;;;;12.45;95.57;101761.34;5275310;28;20054;-64
2022/05/22 00:05:55;;;;;;;12.90;6.35;;;;;;;12.54;98.07;101751.81;5275706;28;20453;-64
2022/05/22 00:08:26;;;;;;;12.00;5.88;;;;;;;12.65;97.66;101751.06;5272227;28;20032;-64
2022/05/22 00:10:57;;;;;;;8.98;5.60;;;;;;;12.52;96.66;101749.28;5274357;28;20032;-64
2022/05/22 00:13:28;;;;;;;13.18;6.22;;;;;;;12.52;94.44;101748.38;5275602;28;20043;-64
2022/05/22 00:18:49;;;;;;;11.02;5.63;;;;;;;12.51;96.14;101750.22;5275262;28;20120;-64
2022/05/22 00:21:21;;;;;;;13.07;6.30;;;;;;;12.66;98.51;101742.09;5275067;28;20024;-64
2022/05/22 00:23:52;;;;;;;12.25;5.50;;;;;;;12.68;96.87;101745.50;5275035;28;20044;-64
2022/05/22 00:26:23;;;;;;;14.90;6.72;;;;;;;12.59;96.08;101741.66;5276320;28;20078;-64
2022/05/22 00:28:54;;;;;;;14.32;6.55;;;;;;;12.61;96.96;101739.72;5273224;28;20543;-64
2022/05/22 00:31:26;;;;;;;11.45;5.82;;;;;;;12.59;96.25;101736.28;5274466;28;20107;-64
2022/05/22 00:33:58;;;;;;;16.35;6.78;;;;;;;12.80;95.70;101727.69;5273409;28;20436;-64
2022/05/22 00:36:29;;;;;;;10.85;5.60;;;;;;;12.68;96.71;101726.75;5275123;28;20123;-64
2022/05/22 00:39:02;;;;;;;13.38;6.68;;;;;;;12.68;97.11;101724.09;5274961;28;20035;-64
2022/05/22 00:41:33;;;;;;;15.63;6.40;;;;;;;12.71;97.50;101732.75;5272466;28;20038;-64
2022/05/22 00:44:06;;;;;;;12.48;6.15;;;;;;;12.63;96.46;101735.09;5274193;28;20024;-64
2022/05/22 00:46:38;;;;;;;13.00;6.93;;;;;;;12.60;96.62;101723.75;5273560;28;20032;-64
2022/05/22 00:49:18;;;;;;;12.48;6.88;;;;;;;12.64;97.18;101722.59;5272171;28;20036;-64
2022/05/22 00:52:18;;;;;;;15.40;6.65;;;;;;;12.69;97.44;101723.94;5271819;28;20032;-64
2022/05/22 00:54:53;;;;;;;12.98;6.47;;;;;;;12.65;98.05;101725.13;5267573;28;20138;-65
2022/05/22 00:57:48;;;;;;;11.65;6.35;;;;;;;12.65;98.42;101727.81;5272292;28;20082;-64
2022/05/22 01:00:27;;;;;;;14.07;6.82;;;;;;;12.55;96.42;101714.22;5272906;28;20033;-64
2022/05/22 01:03:28;;;;;;;11.27;6.25;;;;;;;12.52;97.29;101717.16;5272968;28;20402;-64
2022/05/22 01:06:08;;;;;;;11.68;6.32;;;;;;;12.39;96.31;101712.75;5270761;28;20039;-64
2022/05/22 01:08:39;;;;;;;10.90;6.10;;;;;;;12.26;96.10;101710.94;5271371;28;20047;-64
2022/05/22 01:11:14;;;;;;;17.15;6.60;;;;;;;12.16;97.84;101717.91;5272535;28;20036;-64
2022/05/22 01:13:49;;;;;;;13.85;6.88;;;;;;;12.12;99.49;101724.44;5272520;28;20028;-64
2022/05/22 01:16:20;;;;;;;14.52;6.65;;;;;;;12.02;99.03;101718.81;5271914;28;20028;-64
2022/05/22 01:18:54;;;;;;;13.40;7.13;;;;;;;11.97;98.76;101729.00;5271735;28;20035;-64
2022/05/22 01:21:30;;;;;;;14.18;6.88;;;;;;;11.94;99.50;101724.69;5274595;28;20033;-64
2022/05/22 01:24:02;;;;;;;16.50;7.70;;;;;;;11.98;100.00;101724.50;5271095;28;20102;-64
2022/05/22 01:26:34;;;;;;;16.30;8.05;;;;;;;11.91;100.00;101716.06;5272457;28;20032;-64
2022/05/22 01:29:05;;;;;;;14.52;7.60;;;;;;;11.69;99.15;101711.25;5273759;28;20040;-64
2022/05/22 01:31:36;;;;;;;17.65;8.85;;;;;;;11.71;99.95;101701.31;5272091;28;20451;-64
2022/05/22 01:34:07;;;;;;;16.08;8.75;;;;;;;11.66;100.00;101701.66;5273506;28;20417;-64
2022/05/22 01:36:39;;;;;;;11.93;7.70;;;;;;;11.61;100.00;101695.75;5270421;28;20386;-64
2022/05/22 01:39:10;;;;;;;16.77;8.38;;;;;;;11.58;100.00;101691.47;5272993;28;20490;-64
2022/05/22 01:41:41;;;;;;;14.15;7.88;;;;;;;11.51;100.00;101695.50;5269431;28;20155;-64
2022/05/22 01:44:13;;;;;;;15.10;7.45;;;;;;;11.44;100.00;101680.84;5273274;28;20032;-64
2022/05/22 01:46:44;;;;;;;14.27;7.07;;;;;;;11.35;100.00;101684.09;5271646;28;20025;-64
2022/05/22 01:49:15;;;;;;;15.45;8.10;;;;;;;11.32;100.00;101677.16;5272497;28;20509;-64
2022/05/22 01:51:47;;;;;;;14.88;7.97;;;;;;;11.26;100.00;101682.06;5270497;28;20477;-64
2022/05/22 01:54:18;;;;;;;17.48;8.30;;;;;;;11.19;100.00;101682.44;5273168;28;20116;-64
2022/05/22 01:56:49;;;;;;;13.65;8.05;;;;;;;11.15;100.00;101688.09;5271957;28;20074;-64
2022/05/22 01:59:21;;;;;;;14.32;8.40;;;;;;;11.18;100.00;101695.94;5272862;28;20036;-64
2022/05/22 02:01:52;;;;;;;13.57;7.97;;;;;;;11.16;100.00;101695.16;5273607;28;20594;-64
2022/05/22 02:04:23;;;;;;;15.15;7.80;;;;;;;11.05;100.00;101690.53;5271119;28;20017;-64
2022/05/22 02:09:44;;;;;;;12.38;8.30;;;;;;;11.04;100.00;101680.78;5272307;28;20033;-64
2022/05/22 02:12:16;;;;;;;17.05;8.15;;;;;;;10.90;100.00;101683.50;5272181;28;20028;-64
2022/05/22 02:14:47;;;;;;;16.60;8.75;;;;;;;10.93;100.00;101672.59;5271924;28;20032;-64
2022/05/22 02:17:19;;;;;;;15.45;8.18;;;;;;;10.85;100.00;101672.25;5272283;28;20028;-64
2022/05/22 02:19:50;;;;;;;14.57;8.40;;;;;;;10.78;100.00;101674.47;5264748;28;20036;-64
2022/05/22 02:22:22;;;;;;;14.45;8.85;;;;;;;10.82;100.00;101670.66;5272262;28;20032;-64
2022/05/22 02:24:54;;;;;;;18.45;8.43;;;;;;;10.78;100.00;101663.81;5272094;28;20059;-64
2022/05/22 02:27:26;;;;;;;16.65;7.82;;;;;;;10.82;100.00;101656.47;5271035;28;20530;-64
2022/05/22 02:29:59;;;;;;;15.85;9.00;;;;;;;10.78;100.00;101661.13;5271614;28;20028;-64
2022/05/22 02:32:31;;;;;;;17.70;8.65;;;;;;;10.79;100.00;101647.66;5272065;28;20423;-64
2022/05/22 02:35:05;;;;;;;17.80;9.48;;;;;;;10.76;100.00;101647.88;5271150;28;20025;-64
2022/05/22 02:37:41;;;;;;;13.77;9.25;;;;;;;10.79;100.00;101646.81;5272758;28;20028;-64
2022/05/22 02:40:14;;;;;;;15.82;9.82;;;;;;;10.78;100.00;101651.31;5272124;28;20066;-64
2022/05/22 02:42:48;;;;;;;18.55;10.45;;;;;;;10.77;100.00;101633.56;5268342;28;20510;-65
2022/05/22 02:45:22;;;;;;;16.63;10.10;;;;;;;10.80;100.00;101632.53;5273094;28;20032;-64
2022/05/22 02:47:53;;;;;;;;;;;;;;;10.90;100.00;101632.78;5269423;28;20092;-64
2022/05/22 02:50:27;;;;;;;14.85;10.13;;;;;;;10.77;100.00;101630.88;5270854;28;20020;-64
2022/05/22 02:52:58;;;;;;;20.02;10.15;;;;;;;10.74;100.00;101640.94;5270511;28;20078;-64
2022/05/22 02:55:29;;;;;;;17.88;10.80;;;;;;;10.73;100.00;101639.22;5272687;28;20107;-64
2022/05/22 02:58:01;;;;;;;16.45;11.27;;;;;;;10.72;100.00;101641.03;5274947;28;20031;-64
2022/05/22 03:00:32;;;;;;;19.13;10.77;;;;;;;10.74;100.00;101640.94;5275932;28;20028;-64
2022/05/22 03:03:04;;;;;;;13.73;10.02;;;;;;;10.70;100.00;101640.28;5274408;28;20040;-64
2022/05/22 03:08:25;;;;;;;17.20;10.68;;;;;;;10.65;100.00;101639.69;5276072;28;20415;-64
2022/05/22 03:10:56;;;;;;;16.92;10.55;;;;;;;10.56;100.00;101632.28;5274394;28;20020;-64
2022/05/22 03:13:28;;;;;;;18.65;11.27;;;;;;;10.61;100.00;101632.00;5276864;28;20028;-64
2022/05/22 03:15:59;;;;;;;16.52;10.32;;;;;;;10.58;100.00;101633.91;5273405;28;20040;-64
2022/05/22 03:18:30;;;;;;;16.60;10.13;;;;;;;10.45;100.00;101629.44;5275026;28;20445;-64
2022/05/22 03:21:02;;;;;;;18.23;9.85;;;;;;;10.46;100.00;101628.50;5274024;28;20519;-63
2022/05/22 03:23:33;;;;;;;17.98;10.68;;;;;;;10.42;100.00;101621.66;5273540;28;20561;-64
2022/05/22 03:26:05;;;;;;;15.55;10.15;;;;;;;10.42;100.00;101616.31;5274891;28;20163;-63
2022/05/22 03:28:37;;;;;;;16.80;10.48;;;;;;;10.43;100.00;101620.66;5274752;28;20035;-64
2022/05/22 03:31:08;;;;;;;17.42;10.80;;;;;;;10.43;100.00;101612.66;5275295;28;20106;-64
2022/05/22 03:33:40;;;;;;;20.05;10.60;;;;;;;10.31;100.00;101611.63;5275243;28;20389;-64
2022/05/22 03:36:11;;;;;;;18.25;10.30;;;;;;;10.34;100.00;101606.97;5278467;28;20078;-64
2022/05/22 03:38:43;;;;;;;19.27;10.18;;;;;;;10.31;100.00;101606.31;5277544;28;20024;-64
2022/05/22 03:41:14;;;;;;;16.42;9.57;;;;;;;10.36;100.00;101612.22;5278586;28;20379;-64
2022/05/22 03:43:45;;;;;;;17.45;10.82;;;;;;;10.36;100.00;101609.56;5278255;28;20111;-64
2022/05/22 03:46:16;;;;;;;18.58;9.98;;;;;;;10.28;100.00;101609.13;5277395;28;20032;-64
2022/05/22 03:48:48;;;;;;;17.77;10.32;;;;;;;10.25;100.00;101596.84;5277261;28;20111;-64
2022/05/22 03:51:19;;;;;;;13.85;9.82;;;;;;;10.21;100.00;101598.00;5277558;28;20504;-63
2022/05/22 03:53:50;;;;;;;19.55;9.98;;;;;;;10.18;100.00;101591.06;5273815;28;20029;-64
2022/05/22 03:56:22;;;;;;;16.73;9.45;;;;;;;10.13;100.00;101590.47;5277869;28;20036;-64
2022/05/22 03:58:53;;;;;;;18.55;10.13;;;;;;;10.11;100.00;101594.22;5277527;28;20107;-64
2022/05/22 04:01:24;;;;;;;20.02;9.90;;;;;;;10.11;100.00;101604.88;5277243;28;20060;-64
2022/05/22 04:03:56;;;;;;;22.30;10.95;;;;;;;10.31;100.00;101601.81;5276265;28;20787;-64
2022/05/22 04:06:27;;;;;;;16.25;10.52;;;;;;;10.11;100.00;101605.72;5275611;28;20469;-64
2022/05/22 04:08:58;;;;;;;17.38;10.18;;;;;;;10.12;100.00;101619.91;5277706;28;20036;-64
2022/05/22 04:11:30;;;;;;;17.30;11.13;;;;;;;10.14;100.00;101604.66;5278157;28;20032;-64
2022/05/22 04:14:02;;;;;;;19.13;11.48;;;;;;;10.32;100.00;101603.53;5275484;28;20056;-64
2022/05/22 04:16:33;;;;;;;20.02;11.93;;;;;;;10.32;100.00;101600.88;5276986;28;20043;-64
2022/05/22 04:19:04;;;;;;;18.70;11.88;;;;;;;10.27;100.00;101600.28;5276856;28;20032;-64
2022/05/22 04:21:36;;;;;;;18.52;12.27;;;;;;;10.27;100.00;101602.09;5277496;28;20049;-64
2022/05/22 04:27:02;;;;;;;19.83;12.07;;;;;;;10.40;100.00;101601.25;5277216;28;20036;-63
2022/05/22 04:29:35;;;;;;;20.63;12.88;;;;;;;10.46;100.00;101596.47;5276292;28;20066;-64
2022/05/22 04:32:07;;;;;;;18.95;12.70;;;;;;;10.50;100.00;101600.66;5278982;28;20156;-64
2022/05/22 04:34:38;;;;;;;20.13;13.07;;;;;;;10.68;100.00;101588.81;5275221;28;20403;-64
2022/05/22 04:37:10;;;;;;;22.33;13.15;;;;;;;10.69;100.00;101601.19;5277515;28;20068;-64
2022/05/22 04:39:41;;;;;;;19.48;12.27;;;;;;;10.80;100.00;101597.81;5276780;28;20090;-64
2022/05/22 04:42:13;;;;;;;21.48;13.23;;;;;;;10.87;100.00;101603.59;5275680;28;20186;-64
2022/05/22 04:44:44;;;;;;;17.95;13.00;;;;;;;10.90;100.00;101600.75;5277063;28;20429;-64
2022/05/22 04:47:16;;;;;;;18.70;12.70;;;;;;;10.92;100.00;101601.50;5277677;28;20040;-64
2022/05/22 04:49:48;;;;;;;19.25;12.95;;;;;;;10.91;100.00;101607.78;5266757;28;20028;-64
2022/05/22 04:52:20;;;;;;;18.67;12.63;;;;;;;10.98;100.00;101598.41;5277526;28;20426;-64
2022/05/22 04:54:51;;;;;;;18.63;12.45;;;;;;;11.02;100.00;101601.75;5276079;28;20085;-64
2022/05/22 04:57:23;;;;;;;19.15;12.55;;;;;;;10.89;100.00;101601.69;5276256;28;20036;-64
2022/05/22 04:59:54;;;;;;;18.25;12.75;;;;;;;10.84;100.00;101604.66;5275891;28;20055;-64
2022/05/22 05:02:25;;;;;;;19.42;12.63;;;;;;;10.93;100.00;101593.38;5276980;28;20035;-64
2022/05/22 05:04:58;;;;;;;19.02;12.95;;;;;;;10.92;100.00;101589.00;5272564;28;20060;-64
2022/05/22 05:07:29;;;;;;;22.42;13.82;;;;;;;10.91;100.00;101583.75;5277291;28;20066;-64
2022/05/22 05:10:00;;;;;;;18.90;13.20;;;;;;;10.85;100.00;101589.50;5271954;28;20097;-64
2022/05/22 05:12:38;;;;;;;21.45;13.18;;;;;;;10.78;100.00;101587.25;5277030;28;20024;-64
2022/05/22 05:15:12;;;;;;;18.33;13.30;;;;;;;10.77;100.00;101585.50;5276142;28;20075;-64
2022/05/22 05:17:45;;;;;;;19.60;13.43;;;;;;;10.82;100.00;101590.56;5276613;28;20060;-64
2022/05/22 05:20:22;;;;;;;25.48;13.45;;;;;;;10.82;100.00;101595.91;5272325;28;20520;-64
2022/05/22 05:22:54;;;;;;;18.75;14.02;;;;;;;10.85;100.00;101595.69;5276418;28;20174;-64
2022/05/22 05:25:25;;;;;;;17.85;13.98;;;;;;;10.91;100.00;101586.41;5276178;28;20085;-65
2022/05/22 05:27:56;;;;;;;22.52;13.57;;;;;;;10.88;100.00;101586.63;5276042;28;20031;-64
2022/05/22 05:30:28;;;;;;;23.85;14.32;;;;;;;10.92;100.00;101593.47;5274009;28;20082;-64
2022/05/22 05:32:59;;;;;;;19.52;14.38;;;;;;;10.92;100.00;101586.31;5277225;28;20048;-64
2022/05/22 05:35:31;;;;;;;18.52;14.52;;;;;;;11.03;100.00;101588.28;5288088;28;20187;-64
2022/05/22 05:38:03;;;;;;;19.15;14.15;;;;;;;11.10;100.00;101594.94;5276570;28;20032;-64
2022/05/22 05:40:35;;;;;;;23.30;14.63;;;;;;;11.14;100.00;101595.56;5273989;28;20035;-64
2022/05/22 05:43:07;;;;;;;23.92;15.07;;;;;;;11.17;100.00;101592.72;5276186;28;20062;-64
2022/05/22 05:45:38;;;;;;;19.50;14.32;;;;;;;11.19;100.00;101596.97;5274159;28;20443;-64
2022/05/22 05:48:09;;;;;;;25.58;14.23;;;;;;;11.25;100.00;101597.53;5274335;28;20035;-64
2022/05/22 05:50:42;;;;;;;21.90;13.93;;;;;;;11.32;100.00;101601.50;5273245;28;20466;-64
2022/05/22 05:53:13;;;;;;;19.63;14.40;;;;;;;11.34;100.00;101595.09;5275869;28;20035;-64
2022/05/22 05:55:47;;;;;;;21.77;15.43;;;;;;;11.47;100.00;101603.13;5274842;28;20487;-64
2022/05/22 05:58:18;;;;;;;19.70;14.77;;;;;;;11.54;100.00;101596.44;5274272;28;20055;-64
2022/05/22 06:00:49;;;;;;;20.35;14.50;;;;;;;11.61;100.00;101599.50;5274841;28;20067;-64
2022/05/22 06:03:21;;;;;;;23.05;14.25;;;;;;;11.68;100.00;101599.97;5275715;28;20036;-64
2022/05/22 06:05:52;;;;;;;18.70;15.52;;;;;;;11.77;100.00;101600.19;5274165;28;20025;-64
2022/05/22 06:08:23;;;;;;;16.98;14.27;;;;;;;11.84;100.00;101602.41;5275964;28;20091;-64
2022/05/22 06:10:54;;;;;;;21.48;14.52;;;;;;;11.91;100.00;101599.25;5273474;28;20394;-64
2022/05/22 06:13:25;;;;;;;19.80;14.63;;;;;;;12.08;100.00;101607.88;5271983;28;20048;-64
2022/05/22 06:15:57;;;;;;;20.40;14.35;;;;;;;12.33;100.00;101599.84;5275253;28;20036;-64
2022/05/22 06:18:28;;;;;;;21.00;13.60;;;;;;;12.46;100.00;101599.78;5275417;28;20393;-64
2022/05/22 06:21:14;;;;;;;21.50;14.05;;;;;;;12.65;100.00;101603.81;5272343;28;20529;-64
2022/05/22 06:23:46;;;;;;;20.08;14.05;;;;;;;12.81;100.00;101604.41;5274064;28;20486;-65
2022/05/22 06:26:18;;;;;;;20.85;13.32;;;;;;;12.92;100.00;101604.47;5273005;28;20031;-64
2022/05/22 06:28:49;;;;;;;19.38;13.07;;;;;;;13.01;98.13;101607.44;5271281;28;20047;-64
2022/05/22 06:31:21;;;;;;;15.68;13.48;;;;;;;13.16;100.00;101608.94;5274029;28;20047;-64
2022/05/22 06:33:52;;;;;;;21.08;13.85;;;;;;;13.28;100.00;101612.53;5272444;28;20058;-64
2022/05/22 06:36:23;;;;;;;17.38;13.50;;;;;;;13.23;100.00;101610.22;5274601;28;20111;-64
2022/05/22 06:41:44;;;;;;;17.83;13.00;;;;;;;13.28;96.72;101615.22;5271093;28;20459;-64
2022/05/22 06:44:16;;;;;;;18.45;12.45;;;;;;;13.38;97.50;101610.88;5273598;28;20040;-64
2022/05/22 06:46:47;;;;;;;15.55;13.13;;;;;;;13.48;96.85;101611.91;5273011;28;20394;-64
2022/05/22 06:49:18;;;;;;;19.17;13.25;;;;;;;13.53;98.11;101609.69;5267069;28;20647;-64
2022/05/22 06:51:50;;;;;;;16.67;12.25;;;;;;;13.60;97.82;101610.09;5273431;28;20410;-64
2022/05/22 06:54:22;;;;;;;18.13;12.52;;;;;;;13.69;95.94;101606.72;5269768;28;20055;-64
2022/05/22 06:56:53;;;;;;;20.73;12.77;;;;;;;13.77;94.32;101614.16;5271932;28;20394;-65
2022/05/22 06:59:24;;;;;;;17.35;11.90;;;;;;;13.65;92.98;101605.25;5274685;28;20036;-65
2022/05/22 07:01:59;;;;;;;20.23;11.82;;;;;;;13.68;93.66;101609.50;5272228;28;20477;-64
2022/05/22 07:04:30;;;;;;;17.88;11.65;;;;;;;13.71;90.88;101603.88;5271007;28;20024;-64
2022/05/22 07:07:02;;;;;;;18.17;12.10;;;;;;;13.77;91.38;101614.16;5274085;28;20051;-64
2022/05/22 07:09:33;;;;;;;17.13;11.95;;;;;;;13.93;91.50;101614.66;5274876;28;20502;-64
2022/05/22 07:12:11;;;;;;;18.95;11.95;;;;;;;14.04;91.36;101618.34;5275343;28;20398;-64
2022/05/22 07:14:42;;;;;;;16.40;10.82;;;;;;;14.17;90.30;101602.97;5275965;28;20142;-64
2022/05/22 07:17:15;;;;;;;16.80;10.50;;;;;;;14.29;88.68;101607.34;5274896;28;20104;-64
2022/05/22 07:19:46;;;;;;;16.08;10.52;;;;;;;14.38;90.94;101604.91;5274766;28;20498;-64
2022/05/22 07:22:17;;;;;;;18.88;10.85;;;;;;;14.52;86.76;101601.97;5274938;28;20029;-64
2022/05/22 07:24:49;;;;;;;16.25;11.52;;;;;;;14.58;86.09;101604.19;5275213;28;20163;-65
2022/05/22 07:27:20;;;;;;;13.90;10.02;;;;;;;14.76;86.62;101593.75;5275370;28;20028;-64
2022/05/22 07:29:53;;;;;;;14.13;10.05;;;;;;;14.90;86.56;101589.94;5273116;28;20048;-64
2022/05/22 07:32:24;;;;;;;14.38;9.57;;;;;;;15.01;86.63;101581.81;5275634;28;20044;-64
2022/05/22 07:34:55;;;;;;;15.80;8.52;;;;;;;15.13;82.68;101588.03;5274789;28;20021;-64
2022/05/22 07:37:26;;;;;;;14.82;8.70;;;;;;;15.36;83.34;101596.84;5273793;28;20071;-65
2022/05/22 07:39:58;;;;;;;12.90;7.85;;;;;;;15.46;80.99;101592.38;5272277;28;20025;-64
2022/05/22 07:42:29;;;;;;;14.25;8.52;;;;;;;15.51;80.36;101588.44;5278019;28;20024;-64
2022/05/22 07:45:00;;;;;;;15.63;8.45;;;;;;;15.65;79.64;101598.88;5277102;28;20028;-64
2022/05/22 07:47:31;;;;;;;12.65;7.78;;;;;;;15.82;78.31;101592.03;5279139;28;20021;-64
2022/05/22 07:50:18;;;;;;;11.10;7.53;;;;;;;15.93;80.01;101594.66;5278781;28;20031;-64
2022/05/22 07:52:50;;;;;;;14.35;7.45;;;;;;;16.15;78.78;101588.25;5277325;28;20071;-64
2022/05/22 07:55:21;;;;;;;10.98;7.13;;;;;;;16.12;73.35;101588.50;5275701;28;20039;-64
2022/05/22 07:57:52;;;;;;;11.93;7.18;;;;;;;16.22;73.56;101584.03;5277583;28;20122;-65
2022/05/22 08:00:24;;;;;;;11.40;7.30;;;;;;;16.35;75.42;101573.00;5277998;28;20036;-65
2022/05/22 08:02:56;;;;;;;12.38;6.20;;;;;;;16.52;72.64;101568.78;5276991;28;20028;-64
2022/05/22 08:05:27;;;;;;;12.98;6.38;;;;;;;16.60;76.22;101576.19;5276525;28;20084;-64
2022/05/22 08:07:58;;;;;;;10.45;4.85;;;;;;;16.67;72.78;101574.63;5278423;28;20054;-64
2022/05/22 08:10:30;;;;;;;9.13;3.75;;;;;;;16.57;73.70;101574.63;5277604;28;20036;-64
2022/05/22 08:13:01;;;;;;;9.45;3.85;;;;;;;16.59;66.70;101571.81;5274956;28;20048;-65
2022/05/22 08:15:34;;;;;;;8.48;3.50;;;;;;;16.62;64.95;101566.97;5275138;28;20129;-64
2022/05/22 08:18:07;;;;;;;7.63;3.63;;;;;;;16.65;66.96;101560.47;5278749;28;20040;-64
2022/05/22 08:20:40;;;;;;;8.35;3.95;;;;;;;16.95;65.89;101561.34;5275167;28;20067;-64
2022/05/22 08:23:17;;;;;;;10.48;3.50;;;;;;;17.00;66.31;101551.84;5278545;28;20036;-65
2022/05/22 08:25:49;;;;;;;6.28;3.00;;;;;;;17.19;65.11;101548.28;5276892;28;20538;-64
2022/05/22 08:28:21;;;;;;;6.65;1.92;;;;;;;17.33;64.58;101543.44;5277903;28;20093;-64
2022/05/22 08:30:52;;;;;;;6.50;2.33;;;;;;;17.51;62.83;101540.84;5277359;28;20033;-65
2022/05/22 08:33:23;;;;;;;7.53;2.97;;;;;;;17.41;64.64;101528.25;5276692;28;20031;-64
2022/05/22 08:35:55;;;;;;;6.55;2.90;;;;;;;17.63;62.62;101531.59;5277083;28;20033;-66
2022/05/22 08:38:26;;;;;;;10.27;2.80;;;;;;;17.63;63.86;101526.19;5277553;28;20032;-66
2022/05/22 08:41:09;;;;;;;8.82;2.33;;;;;;;17.64;62.17;101519.78;5276676;28;20489;-66
2022/05/22 08:43:51;;;;;;;9.85;4.05;;;;;;;17.72;63.18;101513.66;5275501;28;20085;-66
2022/05/22 08:46:26;;;;;;;10.50;4.82;;;;;;;17.88;61.32;101515.78;5276494;28;20032;-66
2022/05/22 08:48:59;;;;;;;;;;;;;;;18.00;68.79;101512.72;5275913;28;20080;-66
2022/05/22 08:51:43;;;;;;;8.63;5.00;;;;;;;18.02;66.08;101509.88;5273850;28;20351;-66
2022/05/22 08:54:34;;;;;;;10.75;5.35;;;;;;;18.17;64.90;101507.53;5269547;28;20036;-66
2022/05/22 09:00:25;;;;;;;9.70;4.97;;;;;;;18.30;61.38;101504.47;5271034;28;20048;-66
2022/05/22 09:03:06;;;;;;;11.40;5.22;;;;;;;18.51;62.96;101505.03;5271546;28;20429;-66
2022/05/22 09:05:37;;;;;;;9.77;4.28;;;;;;;18.75;61.28;101495.44;5271780;28;20016;-66
2022/05/22 09:08:19;;;;;;;11.50;4.13;;;;;;;18.69;57.80;101491.50;5276731;28;20036;-66
2022/05/22 09:11:04;;;;;;;13.38;4.47;;;;;;;18.84;61.23;101485.59;5274048;28;20541;-66
2022/05/22 09:13:54;;;;;;;;;;;;;;;19.11;65.27;101487.34;5276419;28;20120;-66
2022/05/22 09:16:29;;;;;;;9.05;3.90;;;;;;;19.15;62.45;101489.53;5275208;28;19920;-66
2022/05/22 09:19:07;;;;;;;8.43;4.30;;;;;;;19.28;61.49;101482.88;5275756;28;20029;-63
2022/05/22 09:21:56;;;;;;;11.02;5.22;;;;;;;19.43;59.70;101483.16;5277749;28;20028;-66
2022/05/22 09:24:55;;;;;;;10.60;5.32;;;;;;;19.17;62.59;101474.00;5277110;28;20428;-66
2022/05/22 09:27:47;;;;;;;11.57;5.95;;;;;;;19.03;55.04;101476.47;5277439;28;20036;-66
2022/05/22 09:30:32;;;;;;;10.90;5.07;;;;;;;18.95;56.00;101466.44;5274782;28;20111;-66
2022/05/22 09:33:17;;;;;;;8.27;4.90;;;;;;;19.24;59.50;101466.13;5277293;28;20067;-65
2022/05/22 09:36:08;;;;;;;12.40;4.78;;;;;;;19.24;54.94;101463.41;5273174;28;20025;-66
2022/05/22 09:38:51;;;;;;;10.02;4.07;;;;;;;19.29;60.94;101468.34;5271421;28;20201;-65
2022/05/22 09:42:17;;;;;;;11.70;4.53;;;;;;;19.34;58.79;101466.84;5275626;28;20490;-65
2022/05/22 09:45:27;;;;;;;8.88;4.30;;;;;;;19.28;58.26;101445.84;5205382;28;20034;-65
2022/05/22 09:48:11;;;;;;;9.10;4.38;;;;;;;19.33;56.80;101448.94;5249881;28;20047;-65
2022/05/22 09:51:01;;;;;;;11.68;4.85;;;;;;;19.22;55.58;101442.94;5274930;28;20047;-65
2022/05/22 09:53:45;;;;;;;9.60;4.05;;;;;;;19.67;54.42;101450.78;5275681;28;20052;-65
2022/05/22 09:56:44;;;;;;;10.25;4.40;;;;;;;19.85;58.03;101455.28;5276490;28;20491;-65
2022/05/22 09:59:26;;;;;;;10.35;5.53;;;;;;;19.80;55.79;101454.94;5275606;28;20040;-65
2022/05/22 10:02:02;;;;;;;8.82;4.78;;;;;;;19.80;55.76;101460.34;5281086;28;20039;-65
2022/05/22 10:05:29;;;;;;;8.65;4.40;;;;;;;19.94;56.05;101449.75;5274205;28;20090;-65
2022/05/22 10:08:06;;;;;;;8.98;4.57;;;;;;;20.16;56.70;101459.13;5253328;28;20052;-65
2022/05/22 10:11:02;;;;;;;11.45;4.95;;;;;;;20.32;56.60;101454.75;5274813;28;20025;-65
2022/05/22 10:13:45;;;;;;;8.88;5.00;;;;;;;20.08;52.24;101455.56;5274572;28;20581;-65
2022/05/22 10:16:48;;;;;;;11.82;6.25;;;;;;;20.00;52.24;101450.09;5273508;28;20044;-65
2022/05/22 10:19:42;;;;;;;11.80;5.63;;;;;;;19.84;54.72;101451.75;5260691;28;20119;-65
2022/05/22 10:22:45;;;;;;;11.65;5.82;;;;;;;19.59;54.03;101450.75;5274917;28;20456;-65
2022/05/22 10:25:53;;;;;;;12.82;6.75;;;;;;;19.62;56.35;101442.31;5275104;28;20359;-65
2022/05/22 10:28:32;;;;;;;11.60;5.85;;;;;;;19.29;53.00;101441.28;5272290;28;20036;-65
2022/05/22 10:31:10;;;;;;;11.07;6.00;;;;;;;19.21;53.58;101431.25;5271911;28;20033;-65
2022/05/22 10:34:26;;;;;;;9.38;4.93;;;;;;;19.55;55.47;101419.59;5270618;28;20035;-65
2022/05/22 10:37:12;;;;;;;10.82;5.72;;;;;;;19.66;53.39;101427.44;5255261;28;20040;-65
2022/05/22 10:39:43;;;;;;;9.73;5.70;;;;;;;19.52;51.29;101422.63;5273696;28;20031;-65
2022/05/22 10:42:46;;;;;;;8.70;4.75;;;;;;;19.72;55.22;101421.41;5275160;28;20777;-65
2022/05/22 10:45:37;;;;;;;10.35;4.30;;;;;;;19.89;57.23;101407.94;5273414;28;20131;-65
2022/05/22 10:48:23;;;;;;;9.48;4.57;;;;;;;20.07;56.00;101411.34;5274603;28;20036;-65
2022/05/22 10:51:06;;;;;;;11.02;4.45;;;;;;;20.59;55.30;101407.50;5274453;28;20078;-66
2022/05/22 10:53:58;;;;;;;12.32;5.20;;;;;;;20.57;55.84;101402.25;5272817;28;20036;-65
2022/05/22 10:56:33;;;;;;;10.93;5.03;;;;;;;20.70;53.04;101395.50;5272762;28;20041;-65
2022/05/22 10:59:08;;;;;;;11.57;5.70;;;;;;;20.46;51.46;101399.91;5274290;28;20041;-65
2022/05/22 11:01:40;;;;;;;10.02;5.25;;;;;;;20.45;49.51;101383.78;5275266;28;20024;-65
2022/05/22 11:04:17;;;;;;;11.05;5.57;;;;;;;20.67;51.26;101385.88;5274435;28;20029;-65
2022/05/22 11:06:57;;;;;;;9.55;5.20;;;;;;;20.70;51.40;101388.22;5274931;28;20043;-65
2022/05/22 11:09:31;;;;;;;10.88;5.55;;;;;;;20.44;50.04;101387.50;5272914;28;20024;-66
2022/05/22 11:12:08;;;;;;;10.82;5.43;;;;;;;20.33;50.15;101383.28;5275012;28;20112;-65
2022/05/22 11:14:40;;;;;;;9.30;5.05;;;;;;;20.51;52.39;101383.13;5270403;28;20037;-65
2022/05/22 11:17:19;;;;;;;10.77;4.97;;;;;;;20.28;51.53;101377.50;5277340;28;20604;-66
2022/05/22 11:19:57;;;;;;;10.23;4.82;;;;;;;20.41;51.76;101369.72;5277354;28;20405;-66
2022/05/22 11:22:39;;;;;;;12.93;6.13;;;;;;;20.59;52.24;101368.72;5277849;28;20032;-66
2022/05/22 11:25:33;;;;;;;10.15;4.78;;;;;;;20.82;54.08;101358.88;5273310;28;20050;-65
2022/05/22 11:28:10;;;;;;;13.13;5.25;;;;;;;20.93;51.88;101342.25;5276663;28;20033;-65
2022/05/22 11:30:54;;;;;;;10.15;4.63;;;;;;;21.48;50.99;101348.69;5274542;28;20043;-65
2022/05/22 11:33:38;;;;;;;9.48;4.32;;;;;;;21.57;50.87;101338.63;5278377;28;20401;-66
2022/05/22 11:36:41;;;;;;;9.27;4.97;;;;;;;21.76;51.10;101333.78;5276537;28;20056;-66
2022/05/22 11:39:36;;;;;;;8.07;4.25;;;;;;;21.70;51.88;101328.03;5274303;28;20478;-66
2022/05/22 11:42:29;;;;;;;9.25;4.20;;;;;;;21.64;48.86;101325.19;5277608;28;20024;-65
2022/05/22 11:45:19;;;;;;;13.50;4.83;;;;;;;21.51;46.57;101331.19;5278136;28;20510;-66
2022/05/22 11:48:29;;;;;;;9.95;4.15;;;;;;;21.41;49.36;101322.41;5274849;28;21141;-66
2022/05/22 11:51:21;;;;;;;11.98;4.00;;;;;;;21.31;49.03;101322.63;5269501;28;20044;-65
2022/05/22 11:54:20;;;;;;;9.40;4.40;;;;;;;21.52;51.47;101322.88;5278600;28;20029;-65
2022/05/22 11:57:05;;;;;;;9.73;5.70;;;;;;;21.39;48.83;101319.03;5273092;28;20124;-65
2022/05/22 11:59:58;;;;;;;11.95;5.28;;;;;;;21.50;50.71;101305.94;5277515;28;20450;-65
2022/05/22 12:02:50;;;;;;;11.30;5.80;;;;;;;21.51;49.81;101301.31;5272907;28;20035;-65
2022/05/22 12:05:38;;;;;;;9.15;5.13;;;;;;;21.55;50.16;101286.38;5274888;28;20054;-66
2022/05/22 12:08:33;;;;;;;10.85;5.72;;;;;;;21.27;51.80;101289.56;5273046;28;20124;-66
2022/05/22 12:11:16;;;;;;;12.75;5.38;;;;;;;21.51;52.02;101266.03;5274201;28;20374;-65